createdAt,value
2022-09-14T00:04:43.653Z,15.31
2022-09-14T00:09:45.557Z,15.24
2022-09-14T00:14:46.583Z,15.20
2022-09-14T00:19:47.163Z,15.17
2022-09-14T00:24:49.045Z,15.15
2022-09-14T00:29:49.640Z,15.12
2022-09-14T00:34:50.266Z,15.13
2022-09-14T00:39:52.267Z,15.16
2022-09-14T00:45:08.194Z,15.23
2022-09-14T00:50:10.465Z,15.24
2022-09-14T00:55:15.629Z,15.39
2022-09-14T01:00:18.575Z,15.42
2022-09-14T01:05:20.229Z,15.46
2022-09-14T01:10:38.777Z,15.42
2022-09-14T01:15:46.474Z,15.45
2022-09-14T01:20:53.793Z,15.43
2022-09-14T01:26:41.318Z,15.35
2022-09-14T01:31:50.320Z,15.38
2022-09-14T01:36:58.893Z,15.38
2022-09-14T01:42:01.470Z,15.36
2022-09-14T01:47:09.583Z,15.43
2022-09-14T01:52:13.980Z,15.46
2022-09-14T01:57:17.714Z,15.44
2022-09-14T02:02:25.188Z,15.49
2022-09-14T02:07:26.461Z,15.45
2022-09-14T02:12:27.243Z,15.42
2022-09-14T02:17:31.215Z,15.40
2022-09-14T02:22:32.539Z,15.35
2022-09-14T02:27:33.109Z,15.30
2022-09-14T02:32:41.721Z,15.28
2022-09-14T02:37:50.998Z,15.28
2022-09-14T02:43:02.061Z,15.19
2022-09-14T02:48:10.488Z,15.25
2022-09-14T02:53:14.698Z,15.23
2022-09-14T02:58:16.405Z,15.29
2022-09-14T03:03:21.441Z,15.31
2022-09-14T03:08:22.012Z,15.32
2022-09-14T03:13:23.198Z,15.39
2022-09-14T03:18:25.083Z,15.37
2022-09-14T03:23:25.645Z,15.42
2022-09-14T03:28:26.232Z,15.47
2022-09-14T03:33:28.174Z,15.52
2022-09-14T03:38:30.189Z,15.51
2022-09-14T03:43:31.029Z,15.56
2022-09-14T03:48:33.048Z,15.55
2022-09-14T03:53:34.386Z,15.60
2022-09-14T03:58:35.068Z,15.60
2022-09-14T04:03:37.639Z,15.59
2022-09-14T04:08:40.889Z,15.57
2022-09-14T04:13:42.253Z,15.54
2022-09-14T04:18:44.655Z,15.68
2022-09-14T04:24:10.566Z,16.00
2022-09-14T04:29:07.128Z,15.79
2022-09-14T04:34:09.031Z,15.61
2022-09-14T04:39:13.565Z,15.64
2022-09-14T04:44:14.524Z,15.66
2022-09-14T04:49:18.666Z,15.70
2022-09-14T04:54:19.766Z,15.70
2022-09-14T04:59:20.434Z,15.70
2022-09-14T05:04:22.384Z,15.59
2022-09-14T05:09:24.148Z,15.65
2022-09-14T05:14:24.910Z,15.67
2022-09-14T05:19:26.899Z,15.74
2022-09-14T05:24:28.772Z,15.80
2022-09-14T05:29:31.885Z,15.87
2022-09-14T05:34:33.867Z,15.88
2022-09-14T05:39:34.518Z,15.93
2022-09-14T05:44:35.162Z,15.95
2022-09-14T05:49:37.116Z,16.01
2022-09-14T05:54:37.709Z,16.04
2022-09-14T05:59:38.297Z,16.10
2022-09-14T06:04:40.182Z,16.16
2022-09-14T06:09:40.844Z,16.28
2022-09-14T06:14:41.736Z,16.27
2022-09-14T06:19:43.970Z,16.37
2022-09-14T06:24:44.777Z,16.39
2022-09-14T06:29:45.362Z,16.42
2022-09-14T06:34:47.390Z,16.44
2022-09-14T06:39:49.094Z,16.57
2022-09-14T06:44:49.749Z,16.55
2022-09-14T06:49:51.688Z,16.54
2022-09-14T06:54:52.325Z,16.34
2022-09-14T06:59:53.034Z,16.27
2022-09-14T07:04:55.536Z,16.28
2022-09-14T07:09:56.160Z,16.36
2022-09-14T07:14:56.788Z,16.37
2022-09-14T07:19:58.772Z,16.43
2022-09-14T07:24:59.334Z,16.50
2022-09-14T07:29:59.963Z,16.47
2022-09-14T07:35:01.861Z,16.38
2022-09-14T07:40:03.879Z,16.30
2022-09-14T07:45:05.034Z,16.23
2022-09-14T07:50:09.086Z,16.25
2022-09-14T07:55:12.552Z,16.22
2022-09-14T08:00:16.424Z,16.20
2022-09-14T08:05:20.131Z,16.13
2022-09-14T08:10:21.093Z,16.16
2022-09-14T08:15:27.701Z,16.20
2022-09-14T08:20:30.559Z,16.20
2022-09-14T08:25:31.416Z,16.15
2022-09-14T08:30:32.197Z,16.17
2022-09-14T08:35:56.511Z,16.10
2022-09-14T08:40:55.567Z,16.07
2022-09-14T08:46:04.121Z,15.99
2022-09-14T08:51:07.801Z,15.86
2022-09-14T08:56:18.928Z,15.86
2022-09-14T09:01:31.017Z,16.07
2022-09-14T09:06:42.015Z,16.17
2022-09-14T09:11:48.266Z,16.34
2022-09-14T09:16:51.475Z,16.50
2022-09-14T09:21:53.760Z,16.22
2022-09-14T09:26:54.371Z,15.93
2022-09-14T09:31:59.064Z,15.97
2022-09-14T09:37:38.621Z,16.35
2022-09-14T09:42:39.554Z,16.50
2022-09-14T09:47:42.940Z,16.56
2022-09-14T09:52:51.105Z,16.65
2022-09-14T09:57:52.262Z,16.82
2022-09-14T10:02:54.381Z,17.03
2022-09-14T10:07:59.378Z,16.97
2022-09-14T10:13:07.945Z,17.06
2022-09-14T10:18:16.696Z,17.21
2022-09-14T10:23:36.127Z,17.26
2022-09-14T10:28:36.796Z,17.14
2022-09-14T10:33:37.434Z,17.29
2022-09-14T10:38:44.052Z,17.57
2022-09-14T10:44:11.499Z,17.46
2022-09-14T10:49:31.892Z,17.58
2022-09-14T10:55:04.901Z,17.61
2022-09-14T11:00:13.249Z,17.48
2022-09-14T11:05:21.577Z,17.33
2022-09-14T11:10:35.597Z,17.17
2022-09-14T11:15:44.543Z,17.06
2022-09-14T11:20:58.779Z,16.94
2022-09-14T11:26:04.508Z,16.86
2022-09-14T11:31:12.443Z,16.90
2022-09-14T11:36:20.487Z,16.91
2022-09-14T11:41:27.737Z,16.90
2022-09-14T11:46:33.516Z,16.95
2022-09-14T11:51:40.776Z,16.97
2022-09-14T11:56:43.852Z,16.97
2022-09-14T12:01:44.453Z,16.94
2022-09-14T12:06:57.947Z,17.00
2022-09-14T12:12:00.819Z,17.09
2022-09-14T12:17:22.817Z,17.01
2022-09-14T12:22:33.923Z,16.97
2022-09-14T12:27:38.181Z,16.96
2022-09-14T12:32:43.747Z,16.98
2022-09-14T12:37:44.402Z,17.05
2022-09-14T12:42:46.540Z,17.22
2022-09-14T12:47:56.045Z,17.30
2022-09-14T12:53:14.599Z,17.31
2022-09-14T12:58:27.935Z,17.28
2022-09-14T13:03:48.685Z,17.12
2022-09-14T13:08:54.719Z,17.36
2022-09-14T13:13:57.330Z,17.66
2022-09-14T13:19:04.648Z,17.85
2022-09-14T13:24:19.687Z,17.79
2022-09-14T13:29:22.005Z,17.66
2022-09-14T13:34:25.697Z,17.50
2022-09-14T13:39:30.017Z,17.40
2022-09-14T13:44:35.625Z,17.34
2022-09-14T13:49:37.232Z,17.33
2022-09-14T13:54:37.865Z,17.34
2022-09-14T14:00:17.811Z,17.44
2022-09-14T14:05:24.715Z,17.61
2022-09-14T14:10:29.566Z,17.50
2022-09-14T14:15:42.690Z,17.45
2022-09-14T14:20:43.727Z,17.35
2022-09-14T14:25:47.455Z,17.23
2022-09-14T14:30:49.531Z,17.22
2022-09-14T14:35:52.787Z,17.16
2022-09-14T14:40:58.086Z,17.16
2022-09-14T14:46:02.088Z,17.20
2022-09-14T14:51:02.806Z,17.22
2022-09-14T14:56:03.716Z,17.20
2022-09-14T15:01:05.828Z,17.11
2022-09-14T15:06:15.528Z,17.12
2022-09-14T15:11:18.288Z,17.08
2022-09-14T15:16:20.284Z,17.06
2022-09-14T15:21:21.015Z,17.02
2022-09-14T15:26:21.627Z,17.07
2022-09-14T15:31:23.658Z,17.14
2022-09-14T15:36:39.431Z,17.04
2022-09-14T15:41:41.805Z,16.88
2022-09-14T15:46:45.275Z,16.83
2022-09-14T15:51:47.903Z,16.89
2022-09-14T15:56:50.547Z,16.94
2022-09-14T16:01:52.746Z,16.82
2022-09-14T16:06:53.559Z,16.75
2022-09-14T16:11:57.160Z,16.80
2022-09-14T16:17:01.620Z,16.61
2022-09-14T16:22:02.307Z,16.60
2022-09-14T16:27:02.923Z,16.48
2022-09-14T16:32:04.984Z,16.36
2022-09-14T16:37:05.696Z,16.32
2022-09-14T16:42:07.026Z,16.31
2022-09-14T16:47:09.118Z,16.22
2022-09-14T16:52:09.722Z,16.20
2022-09-14T16:57:10.387Z,16.16
2022-09-14T17:02:12.444Z,16.03
2022-09-14T17:07:13.109Z,15.90
2022-09-14T17:12:13.731Z,15.94
2022-09-14T17:17:15.916Z,15.89
2022-09-14T17:22:16.703Z,15.87
2022-09-14T17:27:18.738Z,15.81
2022-09-14T17:32:20.686Z,15.82
2022-09-14T17:37:21.291Z,15.81
2022-09-14T17:42:21.862Z,15.70
2022-09-14T17:47:24.342Z,15.69
2022-09-14T17:52:25.159Z,15.63
2022-09-14T17:57:25.741Z,15.61
2022-09-14T18:02:27.687Z,15.64
2022-09-14T18:07:29.819Z,15.57
2022-09-14T18:12:34.388Z,15.65
2022-09-14T18:17:36.318Z,15.70
2022-09-14T18:22:37.405Z,15.56
2022-09-14T18:27:37.975Z,15.50
2022-09-14T18:32:39.907Z,15.55
2022-09-14T18:37:40.484Z,15.41
2022-09-14T18:42:41.119Z,15.50
2022-09-14T18:47:43.050Z,15.44
2022-09-14T18:52:43.612Z,15.33
2022-09-14T18:57:46.444Z,15.32
2022-09-14T19:02:53.833Z,15.28
2022-09-14T19:07:54.530Z,15.23
2022-09-14T19:12:55.090Z,15.27
2022-09-14T19:17:57.052Z,15.22
2022-09-14T19:22:58.983Z,15.19
2022-09-14T19:27:59.586Z,15.03
2022-09-14T19:33:01.580Z,15.05
2022-09-14T19:38:02.218Z,15.01
2022-09-14T19:43:02.894Z,15.02
2022-09-14T19:48:05.212Z,15.04
2022-09-14T19:53:05.869Z,14.99
2022-09-14T19:58:06.454Z,14.91
2022-09-14T20:03:08.505Z,14.84
2022-09-14T20:08:09.292Z,14.78
2022-09-14T20:13:09.985Z,14.75
2022-09-14T20:18:11.957Z,14.84
2022-09-14T20:23:12.564Z,14.88
2022-09-14T20:28:13.155Z,14.91
2022-09-14T20:33:16.459Z,14.98
2022-09-14T20:38:17.037Z,14.92
2022-09-14T20:43:17.656Z,14.91
2022-09-14T20:48:19.583Z,14.82
2022-09-14T20:53:20.152Z,14.75
2022-09-14T20:58:20.734Z,14.68
2022-09-14T21:03:23.800Z,14.63
2022-09-14T21:08:24.370Z,14.66
2022-09-14T21:13:25.186Z,14.62
2022-09-14T21:18:27.051Z,14.63
2022-09-14T21:23:28.468Z,14.60
2022-09-14T21:28:29.282Z,14.53
2022-09-14T21:33:32.758Z,14.46
2022-09-14T21:38:33.474Z,14.40
2022-09-14T21:43:36.597Z,14.32
2022-09-14T21:48:39.049Z,14.18
2022-09-14T21:53:39.629Z,14.13
2022-09-14T21:58:40.502Z,14.08
2022-09-14T22:03:42.611Z,13.89
2022-09-14T22:08:43.840Z,13.85
2022-09-14T22:13:44.851Z,13.81
2022-09-14T22:18:53.192Z,13.78
2022-09-14T22:23:55.620Z,13.73
2022-09-14T22:28:56.765Z,13.73
2022-09-14T22:33:59.519Z,13.76
2022-09-14T22:39:01.043Z,13.72
2022-09-14T22:44:01.873Z,13.68
2022-09-14T22:49:03.839Z,13.68
2022-09-14T22:54:05.355Z,13.63
2022-09-14T22:59:07.546Z,13.64
2022-09-14T23:04:11.481Z,13.67
2022-09-14T23:09:14.846Z,13.61
2022-09-14T23:14:16.963Z,13.57
2022-09-14T23:19:19.654Z,13.62
2022-09-14T23:24:20.244Z,13.60
2022-09-14T23:29:20.809Z,13.59
2022-09-14T23:34:22.700Z,13.57
2022-09-14T23:39:23.273Z,13.70
2022-09-14T23:44:24.128Z,13.65
2022-09-14T23:49:26.049Z,13.62
2022-09-14T23:54:26.911Z,13.69
2022-09-14T23:59:27.524Z,13.76
